Eiwamaru — JG5742 — position and weather

sailwx.info

Track history (hours):
 
Tides and Currents Weather Stations Pressure Air Temp Water Temp Dewpoint Dewpoint Depression Visibility Wind Speed Wind Dir Waves Ship Positions

Eiwamaru

Last reported at 2015-Jul-02 17:33 UTC. Time now 2015-Jul-02 18:19 UTC.
Position N 35°32' E 140°02'.

Length 80 m; draft 3.9 m.

Type: Tanker. MMSI: 431101045.

Date/timePositionNaut miles runAvg speedWind from/ knotsBaromVisibWave heightAir tempDewpointWater temp
2015-Jul-02 17:33N 35°32' E 140°02'0 0.0
2015-Jul-02 16:32N 35°32' E 140°02'0 0.0
2015-Jul-02 15:33N 35°32' E 140°02'0 0.0
2015-Jul-02 14:33N 35°32' E 140°02'0 0.0
2015-Jul-02 13:32N 35°32' E 140°02'0 0.0
2015-Jul-02 12:33N 35°32' E 140°02'0 0.0
2015-Jul-02 11:33N 35°32' E 140°02'0 0.1
2015-Jul-02 10:33N 35°32' E 140°02'0 0.0
2015-Jul-02 09:33N 35°32' E 140°02'1 1.3
2015-Jul-02 08:33N 35°31' E 140°02'0 0.0
2015-Jul-02 07:33N 35°31' E 140°02'0 0.0
2015-Jul-02 06:33N 35°31' E 140°02'0 0.0
2015-Jul-02 05:33N 35°31' E 140°02'0 0.0
2015-Jul-02 04:33N 35°31' E 140°02'1 1.4
2015-Jul-02 03:33N 35°32' E 140°03'0 0.1
2015-Jul-02 02:33N 35°32' E 140°03'0 0.0
2015-Jul-02 01:33N 35°32' E 140°03'0 0.0
2015-Jul-02 00:33N 35°32' E 140°03'0 0.1
2015-Jul-01 23:33N 35°32' E 140°03'2 1.7
2015-Jul-01 22:33N 35°33' E 140°02'4 4.1
2015-Jul-01 21:33N 35°36' E 140°06'0 0.0
2015-Jul-01 20:29N 35°36' E 140°06'0 0.0
2015-Jul-01 19:23N 35°36' E 140°06'0 0.0
2015-Jul-01 18:29N 35°36' E 140°06'0 0.0
2015-Jul-01 17:26N 35°36' E 140°06'0 0.0
2015-Jul-01 15:32N 35°36' E 140°06'0 0.0
2015-Jul-01 14:29N 35°36' E 140°06'0 0.0
2015-Jul-01 13:29N 35°36' E 140°06'0 0.0
2015-Jul-01 12:32N 35°36' E 140°06'0 0.0
2015-Jul-01 11:23N 35°36' E 140°06'0 0.0
2015-Jul-01 10:32N 35°36' E 140°06'0 0.0
2015-Jul-01 08:20N 35°36' E 140°06'0 0.0
2015-Jul-01 07:20N 35°36' E 140°06'0 0.0
2015-Jul-01 06:14N 35°36' E 140°06'0 0.0
2015-Jul-01 05:32N 35°36' E 140°06'0 0.0
2015-Jul-01 04:32N 35°36' E 140°06'2 2.4
2015-Jul-01 03:33N 35°35' E 140°04'4 3.5
2015-Jul-01 02:33N 35°32' E 140°01'0 0.1
2015-Jul-01 01:32N 35°32' E 140°01'0 0.0
2015-Jul-01 00:27N 35°32' E 140°01'0 0.1
2015-Jun-30 23:28N 35°32' E 140°01'0 0.0
2015-Jun-30 22:16N 35°32' E 140°01'0 0.0
2015-Jun-30 21:28N 35°32' E 140°01'0 0.0
2015-Jun-30 20:22N 35°32' E 140°01'0 0.0
2015-Jun-30 19:28N 35°32' E 140°01'0 0.0
2015-Jun-30 18:28N 35°32' E 140°01'0 0.0
2015-Jun-30 17:22N 35°32' E 140°01'0 0.0
2015-Jun-30 16:22N 35°32' E 140°01'0 0.0
2015-Jun-30 15:22N 35°32' E 140°01'0 0.0
2015-Jun-30 14:22N 35°32' E 140°01'0 0.1
2015-Jun-30 13:28N 35°32' E 140°01'0 0.0
2015-Jun-30 12:16N 35°32' E 140°01'1 1.7
2015-Jun-30 11:28N 35°31' E 140°02'0 0.0
2015-Jun-30 10:10N 35°31' E 140°02'0 0.0
2015-Jun-30 09:28N 35°31' E 140°02'0 0.0
2015-Jun-30 08:10N 35°31' E 140°02'1 1.1
2015-Jun-30 07:31N 35°31' E 140°02'1 0.8
2015-Jun-30 06:30N 35°32' E 140°02'0 0.0
2015-Jun-30 05:30N 35°32' E 140°02'0 0.0
2015-Jun-30 04:30N 35°32' E 140°02'0 0.0
2015-Jun-30 03:24N 35°32' E 140°02'0 0.0
2015-Jun-30 02:18N 35°32' E 140°02'0 0.0
2015-Jun-30 01:30N 35°32' E 140°02'0 0.0
2015-Jun-30 00:12N 35°32' E 140°02'0 0.0
2015-Jun-29 23:30N 35°32' E 140°02'0 0.0
2015-Jun-29 22:30N 35°32' E 140°02'0 0.0
2015-Jun-29 21:18N 35°32' E 140°02'0 0.0
2015-Jun-29 20:30N 35°32' E 140°02'0 0.0
2015-Jun-29 19:30N 35°32' E 140°02'0 0.0
2015-Jun-29 18:18N 35°32' E 140°02'0 0.1
2015-Jun-29 17:30N 35°32' E 140°02'0 0.0
2015-Jun-29 16:18N 35°32' E 140°02'0 0.0
2015-Jun-29 15:33N 35°32' E 140°02'0 0.0
2015-Jun-29 14:18N 35°32' E 140°02'0 0.0
2015-Jun-29 13:30N 35°32' E 140°02'0 0.0
2015-Jun-29 11:30N 35°32' E 140°02'0 0.0
2015-Jun-29 10:24N 35°32' E 140°02'0 0.0
2015-Jun-29 09:18N 35°32' E 140°02'0 0.0
2015-Jun-29 08:30N 35°32' E 140°02'0 0.0
2015-Jun-29 07:30N 35°32' E 140°02'0 0.0
2015-Jun-29 06:30N 35°32' E 140°02'0 0.0
2015-Jun-29 05:30N 35°32' E 140°02'0 0.0
2015-Jun-29 04:24N 35°32' E 140°02'0 0.0
2015-Jun-29 03:24N 35°32' E 140°02'1 1.7
2015-Jun-29 02:33N 35°32' E 140°03'0 0.0
2015-Jun-29 01:33N 35°32' E 140°03'0 0.0
2015-Jun-29 00:32N 35°32' E 140°03'0 0.1
2015-Jun-28 23:33N 35°32' E 140°03'1 1.2
2015-Jun-28 22:33N 35°33' E 140°02'0 0.1
2015-Jun-28 21:33N 35°33' E 140°02'4 4.4
2015-Jun-28 20:33N 35°36' E 140°06'0 0.0
2015-Jun-28 19:31N 35°36' E 140°06'0 0.0
2015-Jun-28 18:33N 35°36' E 140°06'0 0.0
2015-Jun-28 17:33N 35°36' E 140°06'0 0.0
2015-Jun-28 16:33N 35°36' E 140°06'0 0.0
2015-Jun-28 15:33N 35°36' E 140°06'0 0.0
2015-Jun-28 14:33N 35°36' E 140°06'0 0.0
2015-Jun-28 13:33N 35°36' E 140°06'0 0.0
2015-Jun-28 12:33N 35°36' E 140°06'0 0.0
2015-Jun-28 11:33N 35°36' E 140°06'0 0.0
2015-Jun-28 10:33N 35°36' E 140°06'0 0.0
2015-Jun-28 09:33N 35°36' E 140°06'0 0.0
2015-Jun-28 08:33N 35°36' E 140°06'0 0.0
2015-Jun-28 07:33N 35°36' E 140°06'0 0.1
2015-Jun-28 06:33N 35°36' E 140°06'6 5.9
2015-Jun-28 05:33N 35°31' E 140°02'0 0.0
2015-Jun-28 04:33N 35°31' E 140°02'0 0.0
2015-Jun-28 03:33N 35°31' E 140°02'0 0.0
2015-Jun-28 02:33N 35°31' E 140°02'0 0.0
2015-Jun-28 01:33N 35°31' E 140°02'0 0.0
2015-Jun-28 00:32N 35°31' E 140°02'0 0.0
2015-Jun-27 23:31N 35°31' E 140°02'1 1.3
2015-Jun-27 22:33N 35°32' E 140°02'0 0.0
2015-Jun-27 21:33N 35°32' E 140°02'0 0.0
2015-Jun-27 20:33N 35°32' E 140°02'0 0.0
2015-Jun-27 19:33N 35°32' E 140°02'0 0.0
2015-Jun-27 18:33N 35°32' E 140°02'0 0.0
2015-Jun-27 17:33N 35°32' E 140°02'0 0.0
2015-Jun-27 16:33N 35°32' E 140°02'0 0.0
2015-Jun-27 15:33N 35°32' E 140°02'0 0.0
2015-Jun-27 14:31N 35°32' E 140°02'0 0.0
2015-Jun-27 13:33N 35°32' E 140°02'0 0.1
2015-Jun-27 12:33N 35°32' E 140°02'0 0.0
2015-Jun-27 11:33N 35°32' E 140°02'0 0.0
2015-Jun-27 10:33N 35°32' E 140°02'0 0.0
2015-Jun-27 09:33N 35°32' E 140°02'0 0.0
2015-Jun-27 08:33N 35°32' E 140°02'0 0.0
2015-Jun-27 07:33N 35°32' E 140°02'0 0.1
2015-Jun-27 06:33N 35°32' E 140°02'0 0.0
2015-Jun-27 05:33N 35°32' E 140°02'0 0.1
2015-Jun-27 04:33N 35°32' E 140°02'0 0.0
2015-Jun-27 03:33N 35°32' E 140°02'0 0.0
2015-Jun-27 02:33N 35°32' E 140°02'0 0.0
2015-Jun-27 01:33N 35°32' E 140°02'0 0.0
2015-Jun-27 00:33N 35°32' E 140°02'0 0.0
2015-Jun-26 23:33N 35°32' E 140°02'0 0.0
2015-Jun-26 22:33N 35°32' E 140°02'0 0.0
2015-Jun-26 21:30N 35°32' E 140°02'0 0.0
2015-Jun-26 20:33N 35°32' E 140°02'0 0.0
2015-Jun-26 19:33N 35°32' E 140°02'0 0.0
2015-Jun-26 18:33N 35°32' E 140°02'0 0.0
2015-Jun-26 17:33N 35°32' E 140°02'0 0.0
2015-Jun-26 16:33N 35°32' E 140°02'0 0.0
2015-Jun-26 15:33N 35°32' E 140°02'0 0.0
2015-Jun-26 14:33N 35°32' E 140°02'0 0.0
2015-Jun-26 13:33N 35°32' E 140°02'0 0.0
2015-Jun-26 12:33N 35°32' E 140°02'0 0.0
2015-Jun-26 11:33N 35°32' E 140°02'0 0.0
2015-Jun-26 10:33N 35°32' E 140°02'0 0.0
2015-Jun-26 09:33N 35°32' E 140°02'0 0.0
2015-Jun-26 08:33N 35°32' E 140°02'0 0.0
2015-Jun-26 07:33N 35°32' E 140°02'0 0.0
2015-Jun-26 06:33N 35°32' E 140°02'0 0.0
2015-Jun-26 05:33N 35°32' E 140°02'0 0.0
2015-Jun-26 04:32N 35°32' E 140°02'0 0.3
2015-Jun-26 03:33N 35°32' E 140°02'1 1.3
2015-Jun-26 02:33N 35°32' E 140°03'0 0.0
2015-Jun-26 01:33N 35°32' E 140°03'0 0.0
2015-Jun-26 00:33N 35°32' E 140°03'0 0.2
2015-Jun-25 23:33N 35°32' E 140°03'1 1.4
2015-Jun-25 22:33N 35°32' E 140°01'0 0.0
2015-Jun-25 21:30N 35°32' E 140°01'0 0.0
2015-Jun-25 19:30N 35°32' E 140°01'0 0.0
2015-Jun-25 18:24N 35°32' E 140°01'0 0.0
2015-Jun-25 17:06N 35°32' E 140°01'0 0.1
2015-Jun-25 16:18N 35°32' E 140°01'0 0.0
2015-Jun-25 15:24N 35°32' E 140°01'0 0.0
2015-Jun-25 14:24N 35°32' E 140°01'0 0.0
2015-Jun-25 13:30N 35°32' E 140°01'0 0.0
2015-Jun-25 12:12N 35°32' E 140°01'0 0.0
2015-Jun-25 11:24N 35°32' E 140°01'1 1.5
2015-Jun-25 10:33N 35°31' E 140°02'0 0.0
2015-Jun-25 09:33N 35°31' E 140°02'0 0.0
2015-Jun-25 08:33N 35°31' E 140°02'0 0.0
2015-Jun-25 07:32N 35°31' E 140°02'0 0.0
2015-Jun-25 06:33N 35°31' E 140°02'0 0.0
2015-Jun-25 05:33N 35°31' E 140°02'0 0.0
2015-Jun-25 04:33N 35°31' E 140°02'0 0.0
2015-Jun-25 03:33N 35°31' E 140°02'1 1.1
2015-Jun-25 02:33N 35°32' E 140°02'0 0.1
2015-Jun-25 01:33N 35°32' E 140°02'0 0.0
2015-Jun-25 00:33N 35°32' E 140°02'0 0.0
2015-Jun-24 23:32N 35°32' E 140°02'0 0.0
2015-Jun-24 22:33N 35°32' E 140°02'0 0.0
2015-Jun-24 21:33N 35°32' E 140°02'0 0.0
2015-Jun-24 20:33N 35°32' E 140°02'0 0.0
2015-Jun-24 19:33N 35°32' E 140°02'0 0.0
2015-Jun-24 18:33N 35°32' E 140°02'0 0.0
2015-Jun-24 17:33N 35°32' E 140°02'0 0.0
2015-Jun-24 16:33N 35°32' E 140°02'0 0.0
2015-Jun-24 15:33N 35°32' E 140°02'0 0.0
2015-Jun-24 14:32N 35°32' E 140°02'0 0.0
2015-Jun-24 13:33N 35°32' E 140°02'0 0.0
2015-Jun-24 12:33N 35°32' E 140°02'0 0.0
2015-Jun-24 11:33N 35°32' E 140°02'0 0.0
2015-Jun-24 10:33N 35°32' E 140°02'0 0.0
2015-Jun-24 09:33N 35°32' E 140°02'0 0.0
2015-Jun-24 08:33N 35°32' E 140°02'0 0.0
2015-Jun-24 07:34N 35°32' E 140°02'0 0.0
2015-Jun-24 06:34N 35°32' E 140°02'0 0.0
2015-Jun-24 05:33N 35°32' E 140°02'0 0.0
2015-Jun-24 04:33N 35°32' E 140°02'0 0.1
2015-Jun-24 03:33N 35°32' E 140°02'1 1.3
2015-Jun-24 02:33N 35°32' E 140°03'0 0.0
2015-Jun-24 01:33N 35°32' E 140°03'0 0.0
2015-Jun-24 00:33N 35°32' E 140°03'1 1.3
2015-Jun-23 23:33N 35°32' E 140°02'0 0.0
2015-Jun-23 22:33N 35°32' E 140°02'0 0.0
2015-Jun-23 21:33N 35°32' E 140°02'0 0.0
2015-Jun-23 20:33N 35°32' E 140°02'0 0.0
2015-Jun-23 19:33N 35°32' E 140°02'0 0.0
2015-Jun-23 19:05N 35°32' E 140°02'1 0.0
2015-Jun-22 19:33N 35°33' E 140°01'0 0.0
2015-Jun-22 18:33N 35°33' E 140°01'0 0.1
2015-Jun-22 17:33N 35°33' E 140°01'  
Track history (hours):
 
Tides and Currents Weather Stations Pressure Air Temp Water Temp Dewpoint Dewpoint Depression Visibility Wind Speed Wind Dir Waves Ship Positions

Eiwamaru

Last reported at 2015-Jul-02 17:33 UTC. Time now 2015-Jul-02 18:19 UTC.
Position N 35°32' E 140°02'.

Length 80 m; draft 3.9 m.

Type: Tanker. MMSI: 431101045.

Date/timePositionNaut miles runAvg speedWind from/ knotsBaromVisibWave heightAir tempDewpointWater temp
2015-Jul-02 17:33N 35°32' E 140°02'0 0.0
2015-Jul-02 16:32N 35°32' E 140°02'0 0.0
2015-Jul-02 15:33N 35°32' E 140°02'0 0.0
2015-Jul-02 14:33N 35°32' E 140°02'0 0.0
2015-Jul-02 13:32N 35°32' E 140°02'0 0.0
2015-Jul-02 12:33N 35°32' E 140°02'0 0.0
2015-Jul-02 11:33N 35°32' E 140°02'0 0.1
2015-Jul-02 10:33N 35°32' E 140°02'0 0.0
2015-Jul-02 09:33N 35°32' E 140°02'1 1.3
2015-Jul-02 08:33N 35°31' E 140°02'0 0.0
2015-Jul-02 07:33N 35°31' E 140°02'0 0.0
2015-Jul-02 06:33N 35°31' E 140°02'0 0.0
2015-Jul-02 05:33N 35°31' E 140°02'0 0.0
2015-Jul-02 04:33N 35°31' E 140°02'1 1.4
2015-Jul-02 03:33N 35°32' E 140°03'0 0.1
2015-Jul-02 02:33N 35°32' E 140°03'0 0.0
2015-Jul-02 01:33N 35°32' E 140°03'0 0.0
2015-Jul-02 00:33N 35°32' E 140°03'0 0.1
2015-Jul-01 23:33N 35°32' E 140°03'2 1.7
2015-Jul-01 22:33N 35°33' E 140°02'4 4.1
2015-Jul-01 21:33N 35°36' E 140°06'0 0.0
2015-Jul-01 20:29N 35°36' E 140°06'0 0.0
2015-Jul-01 19:23N 35°36' E 140°06'0 0.0
2015-Jul-01 18:29N 35°36' E 140°06'0 0.0
2015-Jul-01 17:26N 35°36' E 140°06'0 0.0
2015-Jul-01 15:32N 35°36' E 140°06'0 0.0
2015-Jul-01 14:29N 35°36' E 140°06'0 0.0
2015-Jul-01 13:29N 35°36' E 140°06'0 0.0
2015-Jul-01 12:32N 35°36' E 140°06'0 0.0
2015-Jul-01 11:23N 35°36' E 140°06'0 0.0
2015-Jul-01 10:32N 35°36' E 140°06'0 0.0
2015-Jul-01 08:20N 35°36' E 140°06'0 0.0
2015-Jul-01 07:20N 35°36' E 140°06'0 0.0
2015-Jul-01 06:14N 35°36' E 140°06'0 0.0
2015-Jul-01 05:32N 35°36' E 140°06'0 0.0
2015-Jul-01 04:32N 35°36' E 140°06'2 2.4
2015-Jul-01 03:33N 35°35' E 140°04'4 3.5
2015-Jul-01 02:33N 35°32' E 140°01'0 0.1
2015-Jul-01 01:32N 35°32' E 140°01'0 0.0
2015-Jul-01 00:27N 35°32' E 140°01'0 0.1
2015-Jun-30 23:28N 35°32' E 140°01'0 0.0
2015-Jun-30 22:16N 35°32' E 140°01'0 0.0
2015-Jun-30 21:28N 35°32' E 140°01'0 0.0
2015-Jun-30 20:22N 35°32' E 140°01'0 0.0
2015-Jun-30 19:28N 35°32' E 140°01'0 0.0
2015-Jun-30 18:28N 35°32' E 140°01'0 0.0
2015-Jun-30 17:22N 35°32' E 140°01'0 0.0
2015-Jun-30 16:22N 35°32' E 140°01'0 0.0
2015-Jun-30 15:22N 35°32' E 140°01'0 0.0
2015-Jun-30 14:22N 35°32' E 140°01'0 0.1
2015-Jun-30 13:28N 35°32' E 140°01'0 0.0
2015-Jun-30 12:16N 35°32' E 140°01'1 1.7
2015-Jun-30 11:28N 35°31' E 140°02'0 0.0
2015-Jun-30 10:10N 35°31' E 140°02'0 0.0
2015-Jun-30 09:28N 35°31' E 140°02'0 0.0
2015-Jun-30 08:10N 35°31' E 140°02'1 1.1
2015-Jun-30 07:31N 35°31' E 140°02'1 0.8
2015-Jun-30 06:30N 35°32' E 140°02'0 0.0
2015-Jun-30 05:30N 35°32' E 140°02'0 0.0
2015-Jun-30 04:30N 35°32' E 140°02'0 0.0
2015-Jun-30 03:24N 35°32' E 140°02'0 0.0
2015-Jun-30 02:18N 35°32' E 140°02'0 0.0
2015-Jun-30 01:30N 35°32' E 140°02'0 0.0
2015-Jun-30 00:12N 35°32' E 140°02'0 0.0
2015-Jun-29 23:30N 35°32' E 140°02'0 0.0
2015-Jun-29 22:30N 35°32' E 140°02'0 0.0
2015-Jun-29 21:18N 35°32' E 140°02'0 0.0
2015-Jun-29 20:30N 35°32' E 140°02'0 0.0
2015-Jun-29 19:30N 35°32' E 140°02'0 0.0
2015-Jun-29 18:18N 35°32' E 140°02'0 0.1
2015-Jun-29 17:30N 35°32' E 140°02'0 0.0
2015-Jun-29 16:18N 35°32' E 140°02'0 0.0
2015-Jun-29 15:33N 35°32' E 140°02'0 0.0
2015-Jun-29 14:18N 35°32' E 140°02'0 0.0
2015-Jun-29 13:30N 35°32' E 140°02'0 0.0
2015-Jun-29 11:30N 35°32' E 140°02'0 0.0
2015-Jun-29 10:24N 35°32' E 140°02'0 0.0
2015-Jun-29 09:18N 35°32' E 140°02'0 0.0
2015-Jun-29 08:30N 35°32' E 140°02'0 0.0
2015-Jun-29 07:30N 35°32' E 140°02'0 0.0
2015-Jun-29 06:30N 35°32' E 140°02'0 0.0
2015-Jun-29 05:30N 35°32' E 140°02'0 0.0
2015-Jun-29 04:24N 35°32' E 140°02'0 0.0
2015-Jun-29 03:24N 35°32' E 140°02'1 1.7
2015-Jun-29 02:33N 35°32' E 140°03'0 0.0
2015-Jun-29 01:33N 35°32' E 140°03'0 0.0
2015-Jun-29 00:32N 35°32' E 140°03'0 0.1
2015-Jun-28 23:33N 35°32' E 140°03'1 1.2
2015-Jun-28 22:33N 35°33' E 140°02'0 0.1
2015-Jun-28 21:33N 35°33' E 140°02'4 4.4
2015-Jun-28 20:33N 35°36' E 140°06'0 0.0
2015-Jun-28 19:31N 35°36' E 140°06'0 0.0
2015-Jun-28 18:33N 35°36' E 140°06'0 0.0
2015-Jun-28 17:33N 35°36' E 140°06'0 0.0
2015-Jun-28 16:33N 35°36' E 140°06'0 0.0
2015-Jun-28 15:33N 35°36' E 140°06'0 0.0
2015-Jun-28 14:33N 35°36' E 140°06'0 0.0
2015-Jun-28 13:33N 35°36' E 140°06'0 0.0
2015-Jun-28 12:33N 35°36' E 140°06'0 0.0
2015-Jun-28 11:33N 35°36' E 140°06'0 0.0
2015-Jun-28 10:33N 35°36' E 140°06'0 0.0
2015-Jun-28 09:33N 35°36' E 140°06'0 0.0
2015-Jun-28 08:33N 35°36' E 140°06'0 0.0
2015-Jun-28 07:33N 35°36' E 140°06'0 0.1
2015-Jun-28 06:33N 35°36' E 140°06'6 5.9
2015-Jun-28 05:33N 35°31' E 140°02'0 0.0
2015-Jun-28 04:33N 35°31' E 140°02'0 0.0
2015-Jun-28 03:33N 35°31' E 140°02'0 0.0
2015-Jun-28 02:33N 35°31' E 140°02'0 0.0
2015-Jun-28 01:33N 35°31' E 140°02'0 0.0
2015-Jun-28 00:32N 35°31' E 140°02'0 0.0
2015-Jun-27 23:31N 35°31' E 140°02'1 1.3
2015-Jun-27 22:33N 35°32' E 140°02'0 0.0
2015-Jun-27 21:33N 35°32' E 140°02'0 0.0
2015-Jun-27 20:33N 35°32' E 140°02'0 0.0
2015-Jun-27 19:33N 35°32' E 140°02'0 0.0
2015-Jun-27 18:33N 35°32' E 140°02'0 0.0
2015-Jun-27 17:33N 35°32' E 140°02'0 0.0
2015-Jun-27 16:33N 35°32' E 140°02'0 0.0
2015-Jun-27 15:33N 35°32' E 140°02'0 0.0
2015-Jun-27 14:31N 35°32' E 140°02'0 0.0
2015-Jun-27 13:33N 35°32' E 140°02'0 0.1
2015-Jun-27 12:33N 35°32' E 140°02'0 0.0
2015-Jun-27 11:33N 35°32' E 140°02'0 0.0
2015-Jun-27 10:33N 35°32' E 140°02'0 0.0
2015-Jun-27 09:33N 35°32' E 140°02'0 0.0
2015-Jun-27 08:33N 35°32' E 140°02'0 0.0
2015-Jun-27 07:33N 35°32' E 140°02'0 0.1
2015-Jun-27 06:33N 35°32' E 140°02'0 0.0
2015-Jun-27 05:33N 35°32' E 140°02'0 0.1
2015-Jun-27 04:33N 35°32' E 140°02'0 0.0
2015-Jun-27 03:33N 35°32' E 140°02'0 0.0
2015-Jun-27 02:33N 35°32' E 140°02'0 0.0
2015-Jun-27 01:33N 35°32' E 140°02'0 0.0
2015-Jun-27 00:33N 35°32' E 140°02'0 0.0
2015-Jun-26 23:33N 35°32' E 140°02'0 0.0
2015-Jun-26 22:33N 35°32' E 140°02'0 0.0
2015-Jun-26 21:30N 35°32' E 140°02'0 0.0
2015-Jun-26 20:33N 35°32' E 140°02'0 0.0
2015-Jun-26 19:33N 35°32' E 140°02'0 0.0
2015-Jun-26 18:33N 35°32' E 140°02'0 0.0
2015-Jun-26 17:33N 35°32' E 140°02'0 0.0
2015-Jun-26 16:33N 35°32' E 140°02'0 0.0
2015-Jun-26 15:33N 35°32' E 140°02'0 0.0
2015-Jun-26 14:33N 35°32' E 140°02'0 0.0
2015-Jun-26 13:33N 35°32' E 140°02'0 0.0
2015-Jun-26 12:33N 35°32' E 140°02'0 0.0
2015-Jun-26 11:33N 35°32' E 140°02'0 0.0
2015-Jun-26 10:33N 35°32' E 140°02'0 0.0
2015-Jun-26 09:33N 35°32' E 140°02'0 0.0
2015-Jun-26 08:33N 35°32' E 140°02'0 0.0
2015-Jun-26 07:33N 35°32' E 140°02'0 0.0
2015-Jun-26 06:33N 35°32' E 140°02'0 0.0
2015-Jun-26 05:33N 35°32' E 140°02'0 0.0
2015-Jun-26 04:32N 35°32' E 140°02'0 0.3
2015-Jun-26 03:33N 35°32' E 140°02'1 1.3
2015-Jun-26 02:33N 35°32' E 140°03'0 0.0
2015-Jun-26 01:33N 35°32' E 140°03'0 0.0
2015-Jun-26 00:33N 35°32' E 140°03'0 0.2
2015-Jun-25 23:33N 35°32' E 140°03'1 1.4
2015-Jun-25 22:33N 35°32' E 140°01'0 0.0
2015-Jun-25 21:30N 35°32' E 140°01'0 0.0
2015-Jun-25 19:30N 35°32' E 140°01'0 0.0
2015-Jun-25 18:24N 35°32' E 140°01'0 0.0
2015-Jun-25 17:06N 35°32' E 140°01'0 0.1
2015-Jun-25 16:18N 35°32' E 140°01'0 0.0
2015-Jun-25 15:24N 35°32' E 140°01'0 0.0
2015-Jun-25 14:24N 35°32' E 140°01'0 0.0
2015-Jun-25 13:30N 35°32' E 140°01'0 0.0
2015-Jun-25 12:12N 35°32' E 140°01'0 0.0
2015-Jun-25 11:24N 35°32' E 140°01'1 1.5
2015-Jun-25 10:33N 35°31' E 140°02'0 0.0
2015-Jun-25 09:33N 35°31' E 140°02'0 0.0
2015-Jun-25 08:33N 35°31' E 140°02'0 0.0
2015-Jun-25 07:32N 35°31' E 140°02'0 0.0
2015-Jun-25 06:33N 35°31' E 140°02'0 0.0
2015-Jun-25 05:33N 35°31' E 140°02'0 0.0
2015-Jun-25 04:33N 35°31' E 140°02'0 0.0
2015-Jun-25 03:33N 35°31' E 140°02'1 1.1
2015-Jun-25 02:33N 35°32' E 140°02'0 0.1
2015-Jun-25 01:33N 35°32' E 140°02'0 0.0
2015-Jun-25 00:33N 35°32' E 140°02'0 0.0
2015-Jun-24 23:32N 35°32' E 140°02'0 0.0
2015-Jun-24 22:33N 35°32' E 140°02'0 0.0
2015-Jun-24 21:33N 35°32' E 140°02'0 0.0
2015-Jun-24 20:33N 35°32' E 140°02'0 0.0
2015-Jun-24 19:33N 35°32' E 140°02'0 0.0
2015-Jun-24 18:33N 35°32' E 140°02'0 0.0
2015-Jun-24 17:33N 35°32' E 140°02'0 0.0
2015-Jun-24 16:33N 35°32' E 140°02'0 0.0
2015-Jun-24 15:33N 35°32' E 140°02'0 0.0
2015-Jun-24 14:32N 35°32' E 140°02'0 0.0
2015-Jun-24 13:33N 35°32' E 140°02'0 0.0
2015-Jun-24 12:33N 35°32' E 140°02'0 0.0
2015-Jun-24 11:33N 35°32' E 140°02'0 0.0
2015-Jun-24 10:33N 35°32' E 140°02'0 0.0
2015-Jun-24 09:33N 35°32' E 140°02'0 0.0
2015-Jun-24 08:33N 35°32' E 140°02'0 0.0
2015-Jun-24 07:34N 35°32' E 140°02'0 0.0
2015-Jun-24 06:34N 35°32' E 140°02'0 0.0
2015-Jun-24 05:33N 35°32' E 140°02'0 0.0
2015-Jun-24 04:33N 35°32' E 140°02'0 0.1
2015-Jun-24 03:33N 35°32' E 140°02'1 1.3
2015-Jun-24 02:33N 35°32' E 140°03'0 0.0
2015-Jun-24 01:33N 35°32' E 140°03'0 0.0
2015-Jun-24 00:33N 35°32' E 140°03'1 1.3
2015-Jun-23 23:33N 35°32' E 140°02'0 0.0
2015-Jun-23 22:33N 35°32' E 140°02'0 0.0
2015-Jun-23 21:33N 35°32' E 140°02'0 0.0
2015-Jun-23 20:33N 35°32' E 140°02'0 0.0
2015-Jun-23 19:33N 35°32' E 140°02'0 0.0
2015-Jun-23 19:05N 35°32' E 140°02'1 0.0
2015-Jun-22 19:33N 35°33' E 140°01'0 0.0
2015-Jun-22 18:33N 35°33' E 140°01'0 0.1
2015-Jun-22 17:33N 35°33' E 140°01'  

Dump ship's entire track history